createdAt,value
2019-01-16T00:03:35.972Z,100568.45
2019-01-16T00:08:57.510Z,100568.02
2019-01-16T00:14:19.141Z,100570.03
2019-01-16T00:19:40.725Z,100561.25
2019-01-16T00:25:02.280Z,100552.60
2019-01-16T00:30:26.976Z,100544.69
2019-01-16T00:35:42.625Z,100548.19
2019-01-16T00:41:04.232Z,100546.47
2019-01-16T00:46:25.866Z,100552.17
2019-01-16T00:51:47.402Z,100555.65
2019-01-16T00:57:08.996Z,100545.87
2019-01-16T01:02:30.547Z,100539.34
2019-01-16T01:07:52.501Z,100542.45
2019-01-16T01:13:14.067Z,100541.72
2019-01-16T01:18:40.688Z,100536.58
2019-01-16T01:23:59.204Z,100532.09
2019-01-16T01:29:21.002Z,100528.66
2019-01-16T01:34:42.675Z,100521.52
2019-01-16T01:40:04.676Z,100518.42
2019-01-16T01:45:27.173Z,100529.45
2019-01-16T01:50:48.819Z,100524.45
2019-01-16T01:56:10.475Z,100526.61
2019-01-16T02:01:23.734Z,100520.33
2019-01-16T02:06:45.322Z,100509.39
2019-01-16T02:12:06.940Z,100504.77
2019-01-16T02:17:28.516Z,100505.80
2019-01-16T02:22:50.122Z,100490.83
2019-01-16T02:28:11.697Z,100494.01
2019-01-16T02:33:33.311Z,100494.92
2019-01-16T02:38:55.226Z,100502.90
2019-01-16T02:44:16.820Z,100494.73
2019-01-16T02:49:41.428Z,100486.04
2019-01-16T02:55:01.494Z,100477.18
2019-01-16T03:00:45.315Z,100466.24
2019-01-16T03:06:06.935Z,100455.34
2019-01-16T03:11:28.494Z,100457.52
2019-01-16T03:16:50.126Z,100449.47
2019-01-16T03:22:11.734Z,100444.13
2019-01-16T03:27:33.361Z,100444.53
2019-01-16T03:32:54.987Z,100440.56
2019-01-16T03:38:16.533Z,100435.20
2019-01-16T03:43:32.458Z,100434.75
2019-01-16T03:48:57.822Z,100431.62
2019-01-16T03:54:19.359Z,100419.73
2019-01-16T03:59:41.011Z,100418.42
2019-01-16T04:05:02.618Z,100414.46
2019-01-16T04:10:25.908Z,100398.10
2019-01-16T04:15:47.536Z,100399.42
2019-01-16T04:21:00.227Z,100400.74
2019-01-16T04:26:22.057Z,100402.13
2019-01-16T04:31:43.632Z,100389.78
2019-01-16T04:37:05.275Z,100384.96
2019-01-16T04:42:26.859Z,100389.80
2019-01-16T04:47:48.434Z,100376.27
2019-01-16T04:53:10.039Z,100365.04
2019-01-16T04:58:31.639Z,100362.77
2019-01-16T05:03:53.257Z,100354.85
2019-01-16T05:09:14.831Z,100349.57
2019-01-16T05:14:36.401Z,100348.65
2019-01-16T05:19:58.007Z,100360.59
2019-01-16T05:25:19.638Z,100349.17
2019-01-16T05:30:41.293Z,100349.72
2019-01-16T05:36:02.960Z,100353.68
2019-01-16T05:41:24.587Z,100346.68
2019-01-16T05:46:46.245Z,100345.39
2019-01-16T05:52:07.980Z,100349.78
2019-01-16T05:57:29.627Z,100342.34
2019-01-16T06:02:51.273Z,100337.62
2019-01-16T06:08:12.912Z,100331.39
2019-01-16T06:13:28.393Z,100317.48
2019-01-16T06:18:50.068Z,100320.52
2019-01-16T06:24:11.711Z,100313.92
2019-01-16T06:29:33.379Z,100313.98
2019-01-16T06:34:55.018Z,100314.32
2019-01-16T06:40:16.627Z,100316.16
2019-01-16T06:45:38.311Z,100318.66
2019-01-16T06:50:59.899Z,100321.35
2019-01-16T06:56:13.359Z,100299.80
2019-01-16T07:01:34.960Z,100291.17
2019-01-16T07:06:56.994Z,100290.84
2019-01-16T07:12:18.578Z,100294.80
2019-01-16T07:17:40.272Z,100285.96
2019-01-16T07:23:01.910Z,100289.98
2019-01-16T07:28:24.531Z,100295.66
2019-01-16T07:33:46.224Z,100299.67
2019-01-16T07:39:07.857Z,100299.95
2019-01-16T07:44:29.493Z,100285.44
2019-01-16T07:49:51.118Z,100288.14
2019-01-16T07:55:12.739Z,100282.86
2019-01-16T08:00:34.326Z,100287.59
2019-01-16T08:05:51.610Z,100285.50
2019-01-16T08:11:34.449Z,100292.62
2019-01-16T08:16:56.036Z,100296.05
2019-01-16T08:22:17.746Z,100296.45
2019-01-16T08:27:39.301Z,100290.29
2019-01-16T08:33:01.595Z,100298.08
2019-01-16T08:38:23.216Z,100292.41
2019-01-16T08:43:44.859Z,100294.09
2019-01-16T08:49:06.421Z,100287.65
2019-01-16T08:54:28.025Z,100279.36
2019-01-16T08:59:49.609Z,100288.75
2019-01-16T09:05:03.494Z,100285.09
2019-01-16T09:10:25.265Z,100278.10
2019-01-16T09:15:36.817Z,100266.63
2019-01-16T09:20:58.404Z,100270.58
2019-01-16T09:26:19.975Z,100260.42
2019-01-16T09:32:01.090Z,100254.90
2019-01-16T09:37:22.870Z,100248.15
2019-01-16T09:42:44.475Z,100248.70
2019-01-16T09:48:06.059Z,100229.00
2019-01-16T09:53:27.679Z,100243.27
2019-01-16T09:58:49.268Z,100226.02
2019-01-16T10:04:10.928Z,100225.56
2019-01-16T10:09:32.494Z,100218.10
2019-01-16T10:14:46.033Z,100213.22
2019-01-16T10:20:07.650Z,100220.13
2019-01-16T10:25:29.703Z,100209.11
2019-01-16T10:30:51.435Z,100210.27
2019-01-16T10:36:13.118Z,100191.66
2019-01-16T10:41:35.017Z,100175.35
2019-01-16T10:46:56.595Z,100158.03
2019-01-16T10:52:18.218Z,100158.00
2019-01-16T10:57:40.270Z,100144.44
2019-01-16T11:03:02.079Z,100137.44
2019-01-16T11:08:11.802Z,100136.28
2019-01-16T11:13:33.514Z,100122.39
2019-01-16T11:18:55.119Z,100126.28
2019-01-16T11:24:16.717Z,100129.91
2019-01-16T11:29:38.355Z,100111.37
2019-01-16T11:34:59.950Z,100098.17
2019-01-16T11:45:51.804Z,100071.33
2019-01-16T11:51:18.739Z,100050.54
2019-01-16T11:56:24.353Z,100057.33
2019-01-16T12:01:46.189Z,100047.09
2019-01-16T12:07:07.806Z,100028.31
2019-01-16T12:12:29.434Z,100021.43
2019-01-16T12:17:51.054Z,100015.65
2019-01-16T12:23:13.563Z,100010.23
2019-01-16T12:28:35.472Z,99992.87
2019-01-16T12:33:57.781Z,99993.63
2019-01-16T12:44:48.070Z,99977.04
2019-01-16T12:50:09.745Z,99963.22
2019-01-16T12:55:31.414Z,99949.02
2019-01-16T13:00:53.013Z,99954.30
2019-01-16T13:06:15.183Z,99953.48
2019-01-16T13:11:37.112Z,99934.63
2019-01-16T13:16:57.701Z,99925.47
2019-01-16T13:22:21.336Z,99920.27
2019-01-16T13:27:46.791Z,99908.84
2019-01-16T13:33:08.472Z,99914.98
2019-01-16T13:38:30.007Z,99911.95
2019-01-16T13:43:52.441Z,99901.78
2019-01-16T13:49:14.224Z,99905.75
2019-01-16T13:54:36.145Z,99895.28
2019-01-16T13:59:57.766Z,99887.30
2019-01-16T14:05:19.344Z,99888.52
2019-01-16T14:10:40.937Z,99866.30
2019-01-16T14:16:02.622Z,99858.64
2019-01-16T14:21:28.237Z,99848.66
2019-01-16T14:27:01.728Z,99838.02
2019-01-16T14:32:44.655Z,99835.53
2019-01-16T14:38:06.280Z,99828.39
2019-01-16T14:43:28.001Z,99824.89
2019-01-16T14:48:39.779Z,99821.25
2019-01-16T14:54:01.744Z,99812.34
2019-01-16T15:04:53.114Z,99797.48
2019-01-16T15:10:14.971Z,99785.02
2019-01-16T15:15:36.641Z,99772.73
2019-01-16T15:20:58.306Z,99761.25
2019-01-16T15:26:19.903Z,99748.31
2019-01-16T15:31:41.811Z,99747.86
2019-01-16T15:37:03.417Z,99741.84
2019-01-16T15:42:25.035Z,99731.73
2019-01-16T15:47:46.661Z,99731.16
2019-01-16T15:53:08.236Z,99730.48
2019-01-16T15:58:17.778Z,99728.36
2019-01-16T16:03:39.352Z,99729.16
2019-01-16T16:09:00.942Z,99707.31
2019-01-16T16:14:22.618Z,99714.30
2019-01-16T16:19:44.273Z,99706.76
2019-01-16T16:25:05.921Z,99708.08
2019-01-16T16:30:29.963Z,99673.59
2019-01-16T16:35:51.843Z,99676.38
2019-01-16T16:41:13.566Z,99684.67
2019-01-16T16:46:35.188Z,99679.01
2019-01-16T16:51:56.792Z,99678.10
2019-01-16T16:57:18.381Z,99666.03
2019-01-16T17:02:39.973Z,99658.27
2019-01-16T17:08:01.618Z,99558.91
2019-01-16T17:13:24.095Z,99641.17
2019-01-16T17:18:45.671Z,99646.72
2019-01-16T17:24:07.252Z,99638.81
2019-01-16T17:29:27.700Z,99624.26
2019-01-16T17:34:49.363Z,99624.97
2019-01-16T17:40:00.444Z,99621.36
2019-01-16T17:50:51.885Z,99616.09
2019-01-16T17:56:13.541Z,99613.18
2019-01-16T18:01:35.129Z,99609.61
2019-01-16T18:06:56.799Z,99607.63
2019-01-16T18:12:18.346Z,99602.43
2019-01-16T18:17:39.938Z,99580.42
2019-01-16T18:23:01.556Z,99577.12
2019-01-16T18:28:23.156Z,99580.80
2019-01-16T18:33:44.840Z,99572.31
2019-01-16T18:39:06.501Z,99558.86
2019-01-16T18:44:28.088Z,99547.11
2019-01-16T18:49:49.708Z,99544.28
2019-01-16T18:55:11.346Z,99514.56
2019-01-16T19:00:36.414Z,99549.31
2019-01-16T19:05:58.017Z,99559.13
2019-01-16T19:11:19.623Z,99530.88
2019-01-16T19:16:28.758Z,99533.23
2019-01-16T19:21:50.321Z,99542.95
2019-01-16T19:27:11.942Z,99545.95
2019-01-16T19:32:33.526Z,99525.83
2019-01-16T19:37:55.171Z,99528.61
2019-01-16T19:43:16.827Z,99518.78
2019-01-16T19:48:38.434Z,99532.49
2019-01-16T19:54:00.003Z,99522.03
2019-01-16T19:59:21.605Z,99512.81
2019-01-16T20:04:43.154Z,99509.05
2019-01-16T20:10:04.692Z,99506.53
2019-01-16T20:15:27.160Z,99500.80
2019-01-16T20:20:48.761Z,99482.43
2019-01-16T20:26:21.765Z,99490.69
2019-01-16T20:31:43.707Z,99486.07
2019-01-16T20:36:53.903Z,99482.05
2019-01-16T20:42:15.595Z,99486.50
2019-01-16T20:53:07.602Z,99482.05
2019-01-16T20:58:29.272Z,99477.70
2019-01-16T21:03:50.837Z,99466.97
2019-01-16T21:09:12.431Z,99465.57
2019-01-16T21:14:24.148Z,99464.38
2019-01-16T21:19:46.257Z,99456.20
2019-01-16T21:25:07.834Z,99459.77
2019-01-16T21:30:33.322Z,99462.47
2019-01-16T21:35:54.913Z,99461.16
2019-01-16T21:41:16.564Z,99464.10
2019-01-16T21:46:38.149Z,99452.90
2019-01-16T21:51:59.776Z,99437.91
2019-01-16T21:57:23.276Z,99436.78
2019-01-16T22:02:44.871Z,99430.30
2019-01-16T22:08:06.500Z,99435.36
2019-01-16T22:13:27.783Z,99427.84
2019-01-16T22:18:44.798Z,99420.81
2019-01-16T22:24:06.491Z,99422.00
2019-01-16T22:29:28.093Z,99420.68
2019-01-16T22:34:49.723Z,99407.96
2019-01-16T22:40:11.334Z,99409.67
2019-01-16T22:45:33.352Z,99413.11
2019-01-16T22:50:55.225Z,99399.58
2019-01-16T22:56:16.832Z,99400.52
2019-01-16T23:01:36.684Z,99404.69
2019-01-16T23:06:58.257Z,99396.66
2019-01-16T23:12:19.802Z,99393.07
2019-01-16T23:17:41.399Z,99393.42
2019-01-16T23:22:52.539Z,99388.22
2019-01-16T23:28:14.171Z,99373.80
2019-01-16T23:33:32.752Z,99363.06
2019-01-16T23:38:54.333Z,99370.09
2019-01-16T23:44:16.222Z,99366.58
2019-01-16T23:49:37.835Z,99365.86
2019-01-16T23:54:46.541Z,99371.10
